createdAt,value
2023-02-22T00:02:13.082Z,99.99
2023-02-22T00:05:20.795Z,99.99
2023-02-22T00:08:28.258Z,99.99
2023-02-22T00:11:35.941Z,99.99
2023-02-22T00:14:43.801Z,99.99
2023-02-22T00:17:50.873Z,99.99
2023-02-22T00:20:58.718Z,99.99
2023-02-22T00:24:06.297Z,99.99
2023-02-22T00:27:13.334Z,99.99
2023-02-22T00:30:21.260Z,99.99
2023-02-22T00:33:28.534Z,99.99
2023-02-22T00:36:35.864Z,99.99
2023-02-22T00:39:43.784Z,99.99
2023-02-22T00:42:51.037Z,99.99
2023-02-22T00:45:58.566Z,99.99
2023-02-22T00:49:06.175Z,99.99
2023-02-22T00:52:13.622Z,99.99
2023-02-22T00:55:20.880Z,99.99
2023-02-22T00:58:28.306Z,99.99
2023-02-22T01:01:36.129Z,99.99
2023-02-22T01:04:43.462Z,99.99
2023-02-22T01:07:50.680Z,99.99
2023-02-22T01:10:58.808Z,99.99
2023-02-22T01:14:06.141Z,99.99
2023-02-22T01:17:13.331Z,99.99
2023-02-22T01:20:20.865Z,99.99
2023-02-22T01:23:28.224Z,99.99
2023-02-22T01:26:35.371Z,99.99
2023-02-22T01:29:43.094Z,99.99
2023-02-22T01:32:51.993Z,99.99
2023-02-22T01:35:59.653Z,99.99
2023-02-22T01:39:07.174Z,99.99
2023-02-22T01:42:14.504Z,99.99
2023-02-22T01:45:21.842Z,99.99
2023-02-22T01:48:29.471Z,99.99
2023-02-22T01:51:36.848Z,99.99
2023-02-22T01:54:44.373Z,99.99
2023-02-22T01:57:51.763Z,99.99
2023-02-22T02:00:59.471Z,99.99
2023-02-22T02:04:06.884Z,99.99
2023-02-22T02:07:14.054Z,99.99
2023-02-22T02:10:21.727Z,99.99
2023-02-22T02:13:29.086Z,99.99
2023-02-22T02:16:36.439Z,99.99
2023-02-22T02:19:44.098Z,99.99
2023-02-22T02:22:51.053Z,99.99
2023-02-22T02:25:58.736Z,99.99
2023-02-22T02:29:06.722Z,99.99
2023-02-22T02:32:13.816Z,99.99
2023-02-22T02:35:21.655Z,99.99
2023-02-22T02:38:28.883Z,99.99
2023-02-22T02:41:35.809Z,99.99
2023-02-22T02:44:43.791Z,99.99
2023-02-22T02:47:50.855Z,99.99
2023-02-22T02:50:57.663Z,99.99
2023-02-22T02:54:04.964Z,99.99
2023-02-22T02:57:12.644Z,99.99
2023-02-22T03:00:19.514Z,99.99
2023-02-22T03:03:26.169Z,99.99
2023-02-22T03:06:33.298Z,99.99
2023-02-22T03:09:40.682Z,99.99
2023-02-22T03:12:48.071Z,99.99
2023-02-22T03:15:55.336Z,99.99
2023-02-22T03:19:02.214Z,99.99
2023-02-22T03:22:09.889Z,99.99
2023-02-22T03:25:17.056Z,99.99
2023-02-22T03:28:24.076Z,99.99
2023-02-22T03:31:31.689Z,99.99
2023-02-22T03:34:39.394Z,99.99
2023-02-22T03:37:45.852Z,99.99
2023-02-22T03:40:53.343Z,99.99
2023-02-22T03:44:00.877Z,99.99
2023-02-22T03:47:08.380Z,99.99
2023-02-22T03:50:15.593Z,99.99
2023-02-22T03:53:22.836Z,99.99
2023-02-22T03:56:29.469Z,99.99
2023-02-22T03:59:35.883Z,99.99
2023-02-22T04:02:43.721Z,99.99
2023-02-22T04:05:50.514Z,99.99
2023-02-22T04:08:57.590Z,99.99
2023-02-22T04:12:05.177Z,99.99
2023-02-22T04:15:12.129Z,99.99
2023-02-22T04:18:19.314Z,99.99
2023-02-22T04:21:27.098Z,99.99
2023-02-22T04:24:33.758Z,99.99
2023-02-22T04:27:41.369Z,99.99
2023-02-22T04:30:48.490Z,99.99
2023-02-22T04:33:55.853Z,99.99
2023-02-22T04:37:03.207Z,99.99
2023-02-22T04:40:10.596Z,99.99
2023-02-22T04:43:17.546Z,99.99
2023-02-22T04:46:24.391Z,99.99
2023-02-22T04:49:30.418Z,99.99
2023-02-22T04:52:37.565Z,99.99
2023-02-22T04:55:44.167Z,99.99
2023-02-22T04:58:51.306Z,99.99
2023-02-22T05:01:57.951Z,99.99
2023-02-22T05:05:05.006Z,99.99
2023-02-22T05:08:12.312Z,99.99
2023-02-22T05:11:20.000Z,99.99
2023-02-22T05:14:27.046Z,99.99
2023-02-22T05:17:34.699Z,99.99
2023-02-22T05:20:41.387Z,99.99
2023-02-22T05:23:48.501Z,99.99
2023-02-22T05:26:56.089Z,99.99
2023-02-22T05:30:03.851Z,99.99
2023-02-22T05:33:10.746Z,99.99
2023-02-22T05:36:18.371Z,99.99
2023-02-22T05:39:24.743Z,99.99
2023-02-22T05:42:32.235Z,99.99
2023-02-22T05:45:39.799Z,99.99
2023-02-22T05:48:47.086Z,99.99
2023-02-22T05:51:54.646Z,99.99
2023-02-22T05:55:01.955Z,99.99
2023-02-22T05:58:08.844Z,99.99
2023-02-22T06:01:17.814Z,99.99
2023-02-22T06:04:25.648Z,99.99
2023-02-22T06:07:33.095Z,99.99
2023-02-22T06:10:40.067Z,99.99
2023-02-22T06:13:47.206Z,99.99
2023-02-22T06:16:54.898Z,99.99
2023-02-22T06:20:02.287Z,99.99
2023-02-22T06:23:08.741Z,99.99
2023-02-22T06:26:16.634Z,99.99
2023-02-22T06:29:23.901Z,99.99
2023-02-22T06:32:30.470Z,99.99
2023-02-22T06:35:38.077Z,99.99
2023-02-22T06:38:44.909Z,99.99
2023-02-22T06:41:52.232Z,99.99
2023-02-22T06:45:00.129Z,99.99
2023-02-22T06:48:06.888Z,99.99
2023-02-22T06:51:14.540Z,99.99
2023-02-22T06:54:22.330Z,99.99
2023-02-22T06:57:28.961Z,99.99
2023-02-22T07:00:36.895Z,99.99
2023-02-22T07:03:44.714Z,99.99
2023-02-22T07:06:52.233Z,99.99
2023-02-22T07:09:59.080Z,99.99
2023-02-22T07:13:06.364Z,99.99
2023-02-22T07:16:13.902Z,99.99
2023-02-22T07:19:21.310Z,99.99
2023-02-22T07:22:28.140Z,99.99
2023-02-22T07:25:35.809Z,99.99
2023-02-22T07:28:43.074Z,99.99
2023-02-22T07:31:50.505Z,99.99
2023-02-22T07:34:57.750Z,99.99
2023-02-22T07:38:03.505Z,99.99
2023-02-22T07:41:11.269Z,99.99
2023-02-22T07:44:18.766Z,99.99
2023-02-22T07:47:25.440Z,99.99
2023-02-22T07:50:33.099Z,99.99
2023-02-22T07:53:39.654Z,99.99
2023-02-22T07:56:46.417Z,99.99
2023-02-22T07:59:53.710Z,99.99
2023-02-22T08:03:00.985Z,99.99
2023-02-22T08:06:08.779Z,99.99
2023-02-22T08:09:15.898Z,99.99
2023-02-22T08:12:22.270Z,99.99
2023-02-22T08:15:30.074Z,99.99
2023-02-22T08:18:37.182Z,99.99
2023-02-22T08:21:44.192Z,99.99
2023-02-22T08:24:51.712Z,99.99
2023-02-22T08:27:58.565Z,99.99
2023-02-22T08:31:05.882Z,99.99
2023-02-22T08:34:13.562Z,99.99
2023-02-22T08:37:20.924Z,99.99
2023-02-22T08:40:28.166Z,99.99
2023-02-22T08:43:35.859Z,99.97
2023-02-22T08:46:43.211Z,99.66
2023-02-22T08:49:50.649Z,99.21
2023-02-22T08:52:57.520Z,98.90
2023-02-22T08:56:04.464Z,98.54
2023-02-22T08:59:11.715Z,98.33
2023-02-22T09:02:19.198Z,97.88
2023-02-22T09:05:27.128Z,97.57
2023-02-22T09:08:33.939Z,97.32
2023-02-22T09:11:41.664Z,97.02
2023-02-22T09:14:49.610Z,96.15
2023-02-22T09:17:56.716Z,96.31
2023-02-22T09:21:04.616Z,95.59
2023-02-22T09:24:11.769Z,95.75
2023-02-22T09:27:18.255Z,95.65
2023-02-22T09:30:26.067Z,95.40
2023-02-22T09:33:33.139Z,95.29
2023-02-22T09:36:40.146Z,95.09
2023-02-22T09:39:48.252Z,94.84
2023-02-22T09:42:55.502Z,94.54
2023-02-22T09:46:02.975Z,94.29
2023-02-22T09:49:10.772Z,94.29
2023-02-22T09:52:18.156Z,94.08
2023-02-22T09:55:25.607Z,93.84
2023-02-22T09:58:33.527Z,93.43
2023-02-22T10:01:40.854Z,92.91
2023-02-22T10:04:48.210Z,92.36
2023-02-22T10:07:54.997Z,92.87
2023-02-22T10:11:02.253Z,92.83
2023-02-22T10:14:08.758Z,92.83
2023-02-22T10:17:16.129Z,92.47
2023-02-22T10:20:24.108Z,91.56
2023-02-22T10:23:31.129Z,91.72
2023-02-22T10:26:38.395Z,91.61
2023-02-22T10:29:45.884Z,91.72
2023-02-22T10:32:53.061Z,90.80
2023-02-22T10:36:01.530Z,90.75
2023-02-22T10:39:08.740Z,90.86
2023-02-22T10:42:16.770Z,91.16
2023-02-22T10:45:24.545Z,92.24
2023-02-22T10:48:31.622Z,91.02
2023-02-22T10:51:39.634Z,91.22
2023-02-22T10:54:47.434Z,91.33
2023-02-22T10:57:54.645Z,91.53
2023-02-22T11:01:02.411Z,91.74
2023-02-22T11:04:09.991Z,91.63
2023-02-22T11:07:17.526Z,90.71
2023-02-22T11:10:25.410Z,90.92
2023-02-22T11:13:32.758Z,90.92
2023-02-22T11:16:40.090Z,91.39
2023-02-22T11:19:47.518Z,90.67
2023-02-22T11:22:55.437Z,90.88
2023-02-22T11:26:02.881Z,91.28
2023-02-22T11:29:10.219Z,90.98
2023-02-22T11:32:18.095Z,90.67
2023-02-22T11:35:25.265Z,90.63
2023-02-22T11:38:33.043Z,90.83
2023-02-22T11:41:40.612Z,90.63
2023-02-22T11:44:47.794Z,90.38
2023-02-22T11:47:55.534Z,90.38
2023-02-22T11:51:03.072Z,90.14
2023-02-22T11:54:10.503Z,90.24
2023-02-22T11:57:18.044Z,89.63
2023-02-22T12:00:25.618Z,89.01
2023-02-22T12:03:33.472Z,88.51
2023-02-22T12:06:41.366Z,89.42
2023-02-22T12:09:48.911Z,89.53
2023-02-22T12:12:56.422Z,88.36
2023-02-22T12:16:03.995Z,88.46
2023-02-22T12:19:11.767Z,88.57
2023-02-22T12:22:19.222Z,89.34
2023-02-22T12:25:26.769Z,89.40
2023-02-22T12:28:34.743Z,88.59
2023-02-22T12:31:41.954Z,87.84
2023-02-22T12:34:50.071Z,86.51
2023-02-22T12:37:58.021Z,84.88
2023-02-22T12:41:05.104Z,87.23
2023-02-22T12:44:12.879Z,87.59
2023-02-22T12:47:20.354Z,84.23
2023-02-22T12:50:27.805Z,85.86
2023-02-22T12:53:35.647Z,84.74
2023-02-22T12:56:43.106Z,85.55
2023-02-22T12:59:50.579Z,85.46
2023-02-22T13:02:58.079Z,86.43
2023-02-22T13:06:05.642Z,85.11
2023-02-22T13:09:13.087Z,84.70
2023-02-22T13:12:20.213Z,83.79
2023-02-22T13:15:28.220Z,83.59
2023-02-22T13:18:36.042Z,85.41
2023-02-22T13:21:43.335Z,84.60
2023-02-22T13:24:51.288Z,84.70
2023-02-22T13:27:59.053Z,83.38
2023-02-22T13:31:06.196Z,83.89
2023-02-22T13:34:14.125Z,83.79
2023-02-22T13:37:21.635Z,83.08
2023-02-22T13:40:29.126Z,84.30
2023-02-22T13:43:36.691Z,83.69
2023-02-22T13:46:44.603Z,84.20
2023-02-22T13:49:52.134Z,83.48
2023-02-22T13:52:59.938Z,84.70
2023-02-22T13:56:07.297Z,84.70
2023-02-22T13:59:14.555Z,84.60
2023-02-22T14:02:22.624Z,84.09
2023-02-22T14:05:30.668Z,83.99
2023-02-22T14:08:37.643Z,84.30
2023-02-22T14:11:45.216Z,84.09
2023-02-22T14:14:52.506Z,84.70
2023-02-22T14:17:59.998Z,83.93
2023-02-22T14:21:07.637Z,83.53
2023-02-22T14:24:15.284Z,84.44
2023-02-22T14:27:23.061Z,83.83
2023-02-22T14:30:30.675Z,84.54
2023-02-22T14:33:41.262Z,84.17
2023-02-22T14:36:39.402Z,84.68
2023-02-22T14:39:46.844Z,85.49
2023-02-22T14:42:54.764Z,85.09
2023-02-22T14:46:02.017Z,85.23
2023-02-22T14:49:09.716Z,85.64
2023-02-22T14:52:17.613Z,86.04
2023-02-22T14:55:24.721Z,85.74
2023-02-22T14:58:32.596Z,86.45
2023-02-22T15:01:52.794Z,86.08
2023-02-22T15:04:44.694Z,85.98
2023-02-22T15:07:52.188Z,86.49
2023-02-22T15:10:59.424Z,86.22
2023-02-22T15:14:14.628Z,86.74
2023-02-22T15:17:12.131Z,87.04
2023-02-22T15:20:19.594Z,87.38
2023-02-22T15:23:27.173Z,87.49
2023-02-22T15:26:34.723Z,87.49
2023-02-22T15:29:42.739Z,88.14
2023-02-22T15:33:04.967Z,88.14
2023-02-22T15:35:55.284Z,88.79
2023-02-22T15:39:03.193Z,89.00
2023-02-22T15:42:10.301Z,89.14
2023-02-22T15:45:17.854Z,89.25
2023-02-22T15:48:26.098Z,89.14
2023-02-22T15:51:33.402Z,89.49
2023-02-22T15:54:41.448Z,89.69
2023-02-22T15:57:49.377Z,90.14
2023-02-22T16:00:56.608Z,90.35
2023-02-22T16:04:04.607Z,90.59
2023-02-22T16:07:12.403Z,90.90
2023-02-22T16:10:19.518Z,91.20
2023-02-22T16:13:32.427Z,91.46
2023-02-22T16:16:29.590Z,91.86
2023-02-22T16:19:37.100Z,92.07
2023-02-22T16:22:44.607Z,92.32
2023-02-22T16:25:52.395Z,92.42
2023-02-22T16:29:00.184Z,92.56
2023-02-22T16:32:07.546Z,92.87
2023-02-22T16:35:15.551Z,93.18
2023-02-22T16:38:23.636Z,93.32
2023-02-22T16:41:30.811Z,93.43
2023-02-22T16:44:38.843Z,93.52
2023-02-22T16:47:46.788Z,93.67
2023-02-22T16:50:53.968Z,93.77
2023-02-22T16:54:01.726Z,93.88
2023-02-22T16:57:09.520Z,94.23
2023-02-22T17:00:16.517Z,94.23
2023-02-22T17:03:24.201Z,94.43
2023-02-22T17:06:31.690Z,94.43
2023-02-22T17:09:39.220Z,94.54
2023-02-22T17:12:46.876Z,94.64
2023-02-22T17:15:54.407Z,94.78
2023-02-22T17:19:01.940Z,94.78
2023-02-22T17:22:09.491Z,94.78
2023-02-22T17:25:17.040Z,94.78
2023-02-22T17:28:24.293Z,94.89
2023-02-22T17:31:31.841Z,94.89
2023-02-22T17:34:39.472Z,94.78
2023-02-22T17:37:47.026Z,94.78
2023-02-22T17:40:55.270Z,94.89
2023-02-22T17:44:02.758Z,94.78
2023-02-22T17:47:10.246Z,94.89
2023-02-22T17:50:18.404Z,94.89
2023-02-22T17:53:25.577Z,94.89
2023-02-22T17:56:33.420Z,94.89
2023-02-22T17:59:40.926Z,94.78
2023-02-22T18:02:48.494Z,94.73
2023-02-22T18:05:56.411Z,94.73
2023-02-22T18:09:04.002Z,94.73
2023-02-22T18:12:11.665Z,94.73
2023-02-22T18:15:20.155Z,94.73
2023-02-22T18:18:27.170Z,94.83
2023-02-22T18:21:35.027Z,94.83
2023-02-22T18:24:42.581Z,94.98
2023-02-22T18:27:49.917Z,95.07
2023-02-22T18:30:57.079Z,95.07
2023-02-22T18:34:04.411Z,95.18
2023-02-22T18:37:11.851Z,95.39
2023-02-22T18:40:19.198Z,95.49
2023-02-22T18:43:27.040Z,95.53
2023-02-22T18:46:34.580Z,95.74
2023-02-22T18:49:41.925Z,95.74
2023-02-22T18:52:49.658Z,95.74
2023-02-22T18:55:56.805Z,95.94
2023-02-22T18:59:04.508Z,95.98
2023-02-22T19:02:12.219Z,95.98
2023-02-22T19:05:19.088Z,96.09
2023-02-22T19:08:26.510Z,96.19
2023-02-22T19:11:34.124Z,96.30
2023-02-22T19:14:41.102Z,96.30
2023-02-22T19:17:48.741Z,96.30
2023-02-22T19:20:56.185Z,96.30
2023-02-22T19:24:03.912Z,96.40
2023-02-22T19:27:11.600Z,96.50
2023-02-22T19:30:18.647Z,96.40
2023-02-22T19:33:26.195Z,96.30
2023-02-22T19:36:33.772Z,96.30
2023-02-22T19:39:41.477Z,96.19
2023-02-22T19:42:50.116Z,96.19
2023-02-22T19:45:57.478Z,96.23
2023-02-22T19:49:05.338Z,96.34
2023-02-22T19:52:13.246Z,96.23
2023-02-22T19:55:20.312Z,96.23
2023-02-22T19:58:28.171Z,96.23
2023-02-22T20:01:35.998Z,96.14
2023-02-22T20:04:43.651Z,96.03
2023-02-22T20:07:51.011Z,96.03
2023-02-22T20:10:59.926Z,96.03
2023-02-22T20:14:07.401Z,96.03
2023-02-22T20:17:15.029Z,96.03
2023-02-22T20:20:21.981Z,96.03
2023-02-22T20:23:29.949Z,96.03
2023-02-22T20:26:37.671Z,96.03
2023-02-22T20:29:45.441Z,96.03
2023-02-22T20:32:53.548Z,96.03
2023-02-22T20:36:01.930Z,96.03
2023-02-22T20:39:09.310Z,96.08
2023-02-22T20:42:17.173Z,96.08
2023-02-22T20:45:25.972Z,96.18
2023-02-22T20:48:33.765Z,96.28
2023-02-22T20:51:42.353Z,96.28
2023-02-22T20:54:50.752Z,96.28
2023-02-22T20:57:58.165Z,96.28
2023-02-22T21:01:05.652Z,96.28
2023-02-22T21:04:13.545Z,96.39
2023-02-22T21:07:21.818Z,96.43
2023-02-22T21:10:28.918Z,96.53
2023-02-22T21:13:36.330Z,96.53
2023-02-22T21:16:43.420Z,96.64
2023-02-22T21:19:50.310Z,96.73
2023-02-22T21:22:58.026Z,96.73
2023-02-22T21:26:05.273Z,96.73
2023-02-22T21:29:12.380Z,96.89
2023-02-22T21:32:19.655Z,96.89
2023-02-22T21:35:26.796Z,97.09
2023-02-22T21:38:34.280Z,97.19
2023-02-22T21:41:41.600Z,97.19
2023-02-22T21:44:49.050Z,97.30
2023-02-22T21:47:56.801Z,97.30
2023-02-22T21:51:03.944Z,97.44
2023-02-22T21:54:11.905Z,97.55
2023-02-22T21:57:19.604Z,97.65
2023-02-22T22:00:26.545Z,97.65
2023-02-22T22:03:33.869Z,97.75
2023-02-22T22:06:41.308Z,97.65
2023-02-22T22:09:48.326Z,97.75
2023-02-22T22:12:56.205Z,97.80
2023-02-22T22:16:03.608Z,97.90
2023-02-22T22:19:11.037Z,98.11
2023-02-22T22:22:18.683Z,98.32
2023-02-22T22:25:26.192Z,98.67
2023-02-22T22:28:33.651Z,98.97
2023-02-22T22:31:41.416Z,99.29
2023-02-22T22:34:48.883Z,99.39
2023-02-22T22:37:56.282Z,99.60
2023-02-22T22:41:03.650Z,99.80
2023-02-22T22:44:11.423Z,99.99
2023-02-22T22:47:18.881Z,99.99
2023-02-22T22:50:26.198Z,99.99
2023-02-22T22:53:33.915Z,99.99
2023-02-22T22:56:41.153Z,99.99
2023-02-22T22:59:48.591Z,99.99
2023-02-22T23:02:56.414Z,99.99
2023-02-22T23:06:03.376Z,99.99
2023-02-22T23:09:10.981Z,99.99
2023-02-22T23:12:18.750Z,99.99
2023-02-22T23:15:25.845Z,99.99
2023-02-22T23:18:33.659Z,99.99
2023-02-22T23:21:41.241Z,99.99
2023-02-22T23:24:48.178Z,99.99
2023-02-22T23:27:55.514Z,99.99
2023-02-22T23:31:02.964Z,99.99
2023-02-22T23:34:10.256Z,99.99
2023-02-22T23:37:17.821Z,99.99
2023-02-22T23:40:25.363Z,99.99
2023-02-22T23:43:32.686Z,99.99
2023-02-22T23:46:39.927Z,99.99
2023-02-22T23:49:47.499Z,99.99
2023-02-22T23:52:54.747Z,99.99
2023-02-22T23:56:02.020Z,99.99
2023-02-22T23:59:09.890Z,99.99
